YXS weather

Prince George Airport
Prince George, British Columbia, Canada

Public forecast

Using degrees Celsius for public forecast. Weather courtesy of forecast.io.

Current aviation weather report (METAR) for Prince George Airport

Retrieved 2019/12/13 10:43 UTC (0 seconds ago):

CYXS 131043Z AUTO 35006KT 3SM BR OVC002 M01/M01 A2986 RMK SLP145

Aviation forecast (TAF) for Prince George Airport

Retrieved 2019/12/13 07:39 UTC (2 hours ago):

TAF CYXS 130638Z 1307/1319 18005KT P6SM OVC009 TEMPO 1307/1310 SCT009 OVC030 FM131000 VRB03KT P6SM SCT009 OVC030 TEMPO 1310/1319 5SM -SHRASN BR OVC009 PROB30 1310/1316 2SM -FZDZ BR RMK FCST BASED ON AUTO OBS NXT FCST BY 131300Z